| time (UTC) | temp F | wind direction | speed MPH | gust MPH | rain 1hr in | rain 24hr in | rain mn in | humidity % | barometer mb |
| 20260509223008 | 56 | 176 | 0.0 | 5.0 | 0.00 | 0.56 | 0.44 | 1 | 1007.1 |
| 20260509221537 | 56 | 225 | 0.0 | 4.0 | 0.00 | 0.56 | 0.44 | 2 | 1007.1 |
| 20260509220100 | 57 | 224 | 0.0 | 5.0 | 0.00 | 0.56 | 0.44 | 1 | 1007.0 |
| 20260509214529 | 56 | 99 | 1.0 | 4.0 | 0.00 | 0.56 | 0.44 | 1 | 1007.3 |
| 20260509213048 | 56 | 212 | 0.0 | 5.0 | 0.00 | 0.56 | 0.44 | 1 | 1007.5 |
| 20260509211516 | 56 | 134 | 1.0 | 3.0 | 0.00 | 0.56 | 0.44 | 1 | 1007.5 |
| 20260509210042 | 56 | 242 | 0.0 | 3.0 | 0.00 | 0.56 | 0.44 | 1 | 1007.5 |
| 20260509204506 | 55 | 185 | 1.0 | 4.0 | 0.02 | 0.56 | 0.44 | 1 | 1007.6 |
| 20260509203038 | 55 | 262 | 0.0 | 3.0 | 0.02 | 0.56 | 0.44 | 1 | 1007.8 |
| 20260509201504 | 53 | 315 | 1.0 | 5.0 | 0.02 | 0.56 | 0.44 | 1 | 1007.9 |
| 20260509200035 | 53 | 274 | 1.0 | 3.0 | 0.02 | 0.56 | 0.44 | 1 | 1008.1 |
| 20260509194554 | 52 | 277 | 1.0 | 6.0 | 0.00 | 0.55 | 0.42 | 1 | 1008.2 |
| 20260509193033 | 52 | 211 | 2.0 | 6.0 | 0.00 | 0.55 | 0.42 | 1 | 1008.2 |
| 20260509191600 | 52 | 183 | 2.0 | 4.0 | 0.00 | 0.55 | 0.42 | 1 | 1008.3 |
| 20260509191501 | 52 | 201 | 1.0 | 3.0 | 0.00 | 0.55 | 0.42 | 1 | 1008.3 |
| 20260509190034 | 51 | 172 | 1.0 | 4.0 | 0.02 | 0.55 | 0.42 | 1 | 1008.3 |
| 20260509184602 | 51 | 181 | 0.0 | 2.0 | 0.03 | 0.57 | 0.42 | 1 | 1008.3 |
| 20260509183022 | 51 | 222 | 1.0 | 7.0 | 0.04 | 0.57 | 0.42 | 1 | 1008.4 |
| 20260509181619 | 51 | 228 | 0.0 | 3.0 | 0.04 | 0.57 | 0.42 | 1 | 1008.3 |
| 20260509180018 | 50 | 154 | 1.0 | 5.0 | 0.02 | 0.56 | 0.40 | 1 | 1008.3 |
| 20260509174548 | 50 | 231 | 0.0 | 5.0 | 0.02 | 0.56 | 0.39 | 1 | 1008.2 |
| 20260509173017 | 50 | 82 | 0.0 | 4.0 | 0.01 | 0.55 | 0.38 | 1 | 1008.3 |
| 20260509171550 | 50 | 160 | 1.0 | 5.0 | 0.02 | 0.55 | 0.38 | 1 | 1008.4 |
| 20260509170028 | 50 | 260 | 2.0 | 7.0 | 0.02 | 0.55 | 0.38 | 1 | 1008.3 |
| 20260509164553 | 50 | 207 | 1.0 | 3.0 | 0.02 | 0.54 | 0.37 | 1 | 1008.2 |
| 20260509163030 | 50 | 225 | 1.0 | 4.0 | 0.03 | 0.54 | 0.37 | 1 | 1008.2 |
| 20260509161555 | 50 | 245 | 1.0 | 4.0 | 0.02 | 0.53 | 0.36 | 1 | 1008.4 |
| 20260509160016 | 49 | 253 | 1.0 | 6.0 | 0.03 | 0.53 | 0.36 | 1 | 1008.5 |
| 20260509154544 | 49 | 53 | 0.0 | 3.0 | 0.02 | 0.52 | 0.35 | 1 | 1008.7 |
| 20260509153028 | 49 | 325 | 0.0 | 2.0 | 0.02 | 0.51 | 0.34 | 1 | 1008.7 |
| 20260509151537 | 48 | 136 | 0.0 | 7.0 | 0.02 | 0.51 | 0.34 | 1 | 1008.9 |
| 20260509150057 | 48 | 212 | 2.0 | 7.0 | 0.02 | 0.50 | 0.33 | 1 | 1008.9 |
| 20260509144527 | 48 | 280 | 0.0 | 6.0 | 0.04 | 0.51 | 0.33 | 1 | 1009.0 |
| 20260509143101 | 48 | 307 | 1.0 | 4.0 | 0.04 | 0.50 | 0.32 | 1 | 1009.1 |
| 20260509141523 | 48 | 282 | 0.0 | 2.0 | 0.05 | 0.50 | 0.32 | 1 | 1009.1 |
| 20260509140043 | 48 | 246 | 0.0 | 2.0 | 0.04 | 0.49 | 0.31 | 1 | 1009.1 |
| 20260509134613 | 48 | 278 | 0.0 | 4.0 | 0.03 | 0.47 | 0.28 | 1 | 1009.3 |
| 20260509134501 | 48 | 277 | 0.0 | 4.0 | 0.03 | 0.47 | 0.28 | 1 | 1009.3 |
| 20260509133031 | 48 | 242 | 1.0 | 3.0 | 0.04 | 0.46 | 0.28 | 1 | 1009.4 |
| 20260509131558 | 48 | 224 | 0.0 | 2.0 | 0.04 | 0.45 | 0.27 | 1 | 1009.5 |
| 20260509130042 | 47 | 302 | 0.0 | 1.0 | 0.05 | 0.45 | 0.27 | 1 | 1009.6 |
| 20260509124556 | 47 | 288 | 0.0 | 3.0 | 0.04 | 0.44 | 0.26 | 1 | 1009.8 |
| 20260509123029 | 47 | 309 | 0.0 | 3.0 | 0.03 | 0.42 | 0.24 | 1 | 1009.8 |
| 20260509121608 | 47 | 300 | 1.0 | 4.0 | 0.02 | 0.41 | 0.23 | 1 | 1009.8 |
| 20260509120016 | 47 | 246 | 0.0 | 2.0 | 0.02 | 0.40 | 0.22 | 1 | 1009.9 |
| 20260509114542 | 47 | 350 | 0.0 | 1.0 | 0.03 | 0.40 | 0.22 | 1 | 1009.9 |
| 20260509113012 | 46 | 334 | 0.0 | 1.0 | 0.02 | 0.39 | 0.21 | 1 | 1009.9 |
| 20260509111545 | 46 | 350 | 0.0 | 1.0 | 0.03 | 0.39 | 0.21 | 1 | 1010.0 |
| 20260509110056 | 46 | 350 | 0.0 | 1.0 | 0.04 | 0.38 | 0.20 | 1 | 1010.1 |
| 20260509104538 | 46 | 350 | 0.0 | 0.0 | 0.03 | 0.37 | 0.19 | 1 | 1010.1 |
| 20260509103102 | 46 | 350 | 0.0 | 1.0 | 0.04 | 0.37 | 0.19 | 1 | 1010.2 |
| 20260509101532 | 46 | 350 | 0.0 | 1.0 | 0.03 | 0.36 | 0.18 | 1 | 1010.1 |
| 20260509100045 | 46 | 64 | 0.0 | 1.0 | 0.01 | 0.34 | 0.16 | 1 | 1009.9 |
| 20260509094518 | 46 | 316 | 0.0 | 1.0 | 0.01 | 0.34 | 0.16 | 1 | 1010.0 |
| 20260509093042 | 46 | 300 | 0.0 | 1.0 | 0.00 | 0.33 | 0.15 | 1 | 1010.0 |
| 20260509091507 | 46 | 301 | 0.0 | 4.0 | 0.00 | 0.33 | 0.15 | 1 | 1010.0 |
| 20260509090041 | 46 | 293 | 0.0 | 0.0 | 0.00 | 0.33 | 0.15 | 1 | 1010.2 |
| 20260509084510 | 46 | 293 | 0.0 | 0.0 | 0.00 | 0.33 | 0.15 | 1 | 1010.3 |
| 20260509083035 | 46 | 347 | 0.0 | 1.0 | 0.00 | 0.33 | 0.15 | 1 | 1010.2 |
| 20260509081606 | 46 | 18 | 0.0 | 0.0 | 0.00 | 0.33 | 0.15 | 2 | 1010.3 |
| 20260509080027 | 46 | 19 | 0.0 | 0.0 | 0.01 | 0.33 | 0.15 | 3 | 1010.3 |
| 20260509074550 | 46 | 18 | 0.0 | 2.0 | 0.01 | 0.33 | 0.15 | 4 | 1010.2 |
| 20260509073004 | 46 | 225 | 0.0 | 3.0 | 0.02 | 0.33 | 0.15 | 5 | 1010.4 |
| 20260509071528 | 46 | 107 | 0.0 | 1.0 | 0.03 | 0.33 | 0.15 | 8 | 1010.6 |
| 20260509070009 | 46 | 300 | 0.0 | 1.0 | 0.03 | 0.32 | 0.14 | 9 | 1010.9 |
| 20260509064541 | 46 | 314 | 0.0 | 1.0 | 0.04 | 0.32 | 0.14 | 12 | 1011.0 |
| 20260509063100 | 46 | 310 | 0.0 | 1.0 | 0.05 | 0.31 | 0.13 | 13 | 1011.1 |
| 20260509063002 | 46 | 311 | 0.0 | 1.0 | 0.05 | 0.31 | 0.13 | 13 | 1011.2 |
| 20260509061532 | 46 | 290 | 0.0 | 0.0 | 0.05 | 0.30 | 0.12 | 15 | 1011.5 |
| 20260509060052 | 46 | 290 | 0.0 | 0.0 | 0.06 | 0.28 | 0.11 | 16 | 1011.7 |
| 20260509054521 | 46 | 290 | 0.0 | 0.0 | 0.07 | 0.28 | 0.10 | 18 | 1011.6 |
| 20260509053050 | 46 | 290 | 0.0 | 0.0 | 0.06 | 0.26 | 0.08 | 21 | 1011.5 |
| 20260509051519 | 46 | 289 | 0.0 | 0.0 | 0.06 | 0.25 | 0.07 | 22 | 1011.7 |
| 20260509050046 | 47 | 290 | 0.0 | 1.0 | 0.05 | 0.23 | 0.05 | 23 | 1011.8 |
| 20260509044513 | 47 | 305 | 1.0 | 3.0 | 0.04 | 0.21 | 0.03 | 26 | 1011.9 |
| 20260509043045 | 47 | 322 | 0.0 | 2.0 | 0.03 | 0.20 | 0.02 | 30 | 1011.9 |
| 20260509041530 | 47 | 131 | 0.0 | 2.0 | 0.03 | 0.19 | 0.01 | 34 | 1011.9 |
| 20260509040045 | 47 | 236 | 0.0 | 1.0 | 0.02 | 0.18 | 0.00 | 40 | 1011.9 |
| 20260509034506 | 47 | 263 | 0.0 | 2.0 | 0.04 | 0.17 | 0.17 | 47 | 1011.5 |
| 20260509033036 | 48 | 298 | 0.0 | 2.0 | 0.06 | 0.17 | 0.17 | 52 | 1011.8 |
| 20260509031600 | 48 | 267 | 1.0 | 6.0 | 0.06 | 0.16 | 0.16 | 56 | 1011.9 |
| 20260509031502 | 48 | 277 | 1.0 | 5.0 | 0.06 | 0.16 | 0.16 | 55 | 1011.9 |
| 20260509030031 | 48 | 259 | 1.0 | 8.0 | 0.07 | 0.16 | 0.16 | 50 | 1012.2 |
| 20260509024548 | 48 | 293 | 1.0 | 3.0 | 0.04 | 0.14 | 0.13 | 47 | 1012.2 |
| 20260509023019 | 48 | 209 | 0.0 | 4.0 | 0.02 | 0.12 | 0.11 | 53 | 1012.1 |
| 20260509021546 | 48 | 259 | 0.0 | 2.0 | 0.01 | 0.11 | 0.10 | 58 | 1012.1 |
| 20260509020023 | 48 | 207 | 1.0 | 3.0 | 0.00 | 0.10 | 0.09 | 62 | 1011.9 |
| 20260509014546 | 48 | 217 | 0.0 | 3.0 | 0.00 | 0.10 | 0.09 | 66 | 1011.7 |
| 20260509013019 | 48 | 248 | 1.0 | 7.0 | 0.00 | 0.10 | 0.09 | 62 | 1011.5 |
| 20260509011542 | 47 | 246 | 1.0 | 3.0 | 0.00 | 0.10 | 0.09 | 42 | 1011.3 |
| 20260509010006 | 47 | 138 | 1.0 | 5.0 | 0.00 | 0.10 | 0.09 | 38 | 1011.0 |
| 20260509004535 | 46 | 276 | 0.0 | 2.0 | 0.00 | 0.10 | 0.09 | 48 | 1010.9 |
| 20260509003004 | 47 | 226 | 0.0 | 2.0 | 0.00 | 0.10 | 0.09 | 58 | 1010.8 |
| 20260509001536 | 47 | 215 | 0.0 | 2.0 | 0.00 | 0.10 | 0.09 | 65 | 1010.7 |
| 20260509000006 | 48 | 211 | 1.0 | 2.0 | 0.00 | 0.10 | 0.09 | 76 | 1010.5 |
| 20260508234542 | 51 | 217 | 1.0 | 2.0 | 0.00 | 0.10 | 0.09 | 80 | 1010.5 |
| 20260508233010 | 55 | 101 | 0.0 | 2.0 | 0.00 | 0.10 | 0.09 | 79 | 1010.2 |
| 20260508231540 | 57 | 100 | 0.0 | 1.0 | 0.01 | 0.10 | 0.09 | 80 | 1010.0 |
| 20260508230008 | 54 | 100 | 0.0 | 2.0 | 0.03 | 0.10 | 0.09 | 76 | 1010.2 |
| 20260508224538 | 51 | 96 | 0.0 | 2.0 | 0.04 | 0.10 | 0.09 | 66 | 1010.3 |